首页
METAR-TAF:

METAR-TAF

机场 :

Quincy Regional Airport (Baldwin Field)

昆西, 伊利诺伊州, 美国

纬度: 39-56-33N, 经度: 091-11-40W, 海拔: 234米

当前天气观测

该预报发布于47分钟前的15:54 UTC
静风
温度 22°C
湿度 73%
气压 1011 hPa
能見度: 16.1公里
天空无云

METAR: KUIN 041554Z AUTO 00000KT 10SM CLR 22/17 A2984 RMK AO2 SLP098 T02170172

时间: 11:41 (16:41 UTC)

预报

该预报发布于5小时和10分钟前的11:31 UTC
预报有效从04日的 12点(UTC)到 05日的 12点(UTC)
风速4节,风向西南
能見度: 10公里
阴天层高于12000英尺
从 04日的 2100点(UTC)
风速4节,风向多变
能見度: 10公里
少量云层高于12000英尺
从 05日的 0800点(UTC)
风速5节,风向
能見度: 10公里
散云层高于12000英尺

TAF: KUIN 041131Z 0412/0512 23004KT P6SM OVC120 FM042100 VRB04KT P6SM FEW120 FM050800 18005KT P6SM SCT120

超过4000个机场的气象观测和天气预报(METAR&TAF报告)。

可查询的气象台以黄色和红色小点在地图上表示。

将鼠标移到小点上方,可查看气象台名称。

然后点击查看天气观测和预报。

如需切换地图:点击带黑十字的绿色按钮放大地图;点击带横线的绿色按钮缩小地图;或者点击绿色箭头查看邻近地区的地图。


METAR-TAF: